Latest Weather Observations for Fawkner Beacon

IDV60801

Issued at 7:22 am EST Tuesday 4 August 2020 (issued every 10 minutes, with the page automatically refreshed every 10 minutes)

About weather observations | Map of weather stations | Latest weather observations for VIC | Other Formats
Station Details ID: 086376 Name: FAWKNER BEACON Lat: -37.95 Lon: 144.93 Height: 17.0 m
Data from the previous 72 hours. | See also: Recent months at Fawkner Beacon
Date/Time
EST
Temp
°C
App
Temp
°C
Dew
Point
°C
Rel
Hum
%
Delta-T
°C
Wind Press
QNH
hPa
Press
MSL
hPa
Rain since
9am
mm
Dir  Spd
km/h
Gust
km/h
Spd
kts
Gust
kts
04/07:00am - - - - - WNW 35 43 19 23 - - -
04/06:30am - - - - - WNW 37 48 20 26 - - -
04/06:00am - - - - - WNW 39 48 21 26 - - -
04/05:30am - - - - - WNW 37 44 20 24 - - -
04/05:00am - - - - - WNW 35 44 19 24 - - -
04/04:30am - - - - - W 37 48 20 26 - - -
04/04:00am - - - - - WSW 41 52 22 28 - - -
04/03:41am - - - - - WSW 39 54 21 29 - - -
04/03:30am - - - - - SW 44 59 24 32 - - -
04/03:15am - - - - - WSW 48 57 26 31 - - -
04/03:00am - - - - - W 44 52 24 28 - - -
04/02:30am - - - - - W 46 52 25 28 - - -
04/02:07am - - - - - W 37 61 20 33 - - -
04/02:00am - - - - - W 33 43 18 23 - - -
04/01:30am - - - - - WNW 26 33 14 18 - - -
04/01:00am - - - - - NW 28 33 15 18 - - -
04/12:30am - - - - - WNW 33 41 18 22 - - -
04/12:00am - - - - - WNW 30 39 16 21 - - -
 
Date/Time
EST
Temp
°C
App
Temp
°C
Dew
Point
°C
Rel
Hum
%
Delta-T
°C
Wind Press
QNH
hPa
Press
MSL
hPa
Rain since
9am
mm
Dir  Spd
km/h
Gust
km/h
Spd
kts
Gust
kts
03/11:30pm - - - - - WNW 32 41 17 22 - - -
03/11:00pm - - - - - NW 26 33 14 18 - - -
03/10:30pm - - - - - NW 26 32 14 17 - - -
03/10:00pm - - - - - NW 26 32 14 17 - - -
03/09:30pm - - - - - WNW 26 32 14 17 - - -
03/09:00pm - - - - - WNW 26 32 14 17 - - -
03/08:30pm - - - - - W 26 32 14 17 - - -
03/08:00pm - - - - - WSW 30 39 16 21 - - -
03/07:30pm - - - - - WSW 35 44 19 24 - - -
03/07:00pm - - - - - WSW 32 39 17 21 - - -
03/06:30pm - - - - - WSW 32 35 17 19 - - -
03/06:00pm - - - - - WSW 37 44 20 24 - - -
03/05:39pm - - - - - WSW 26 46 14 25 - - -
03/05:30pm - - - - - W 22 26 12 14 - - -
03/05:00pm - - - - - W 26 32 14 17 - - -
03/04:30pm - - - - - W 24 28 13 15 - - -
03/04:00pm - - - - - WSW 22 26 12 14 - - -
03/03:30pm - - - - - WSW 20 26 11 14 - - -
03/03:00pm - - - - - WSW 26 30 14 16 - - -
03/02:30pm - - - - - WSW 13 15 7 8 - - -
03/02:00pm - - - - - SW 9 11 5 6 - - -
03/01:30pm - - - - - WNW 6 9 3 5 - - -
03/01:00pm - - - - - WSW 9 11 5 6 - - -
03/12:30pm - - - - - W 11 13 6 7 - - -
03/12:00pm - - - - - NW 17 22 9 12 - - -
03/11:30am - - - - - NW 24 28 13 15 - - -
03/11:00am - - - - - WNW 20 26 11 14 - - -
03/10:30am - - - - - NNW 19 26 10 14 - - -
03/10:00am - - - - - NNW 17 22 9 12 - - -
03/09:30am - - - - - NNW 20 22 11 12 - - -
03/09:00am - - - - - NNW 20 24 11 13 - - -
03/08:30am - - - - - N 20 24 11 13 - - -
03/08:00am - - - - - NNW 20 24 11 13 - - -
03/07:30am - - - - - NW 22 26 12 14 - - -
03/07:00am - - - - - NW 22 24 12 13 - - -
03/06:30am - - - - - NW 20 24 11 13 - - -
03/06:00am - - - - - NW 13 17 7 9 - - -
03/05:30am - - - - - WNW 17 22 9 12 - - -
03/05:00am - - - - - WNW 15 20 8 11 - - -
03/04:30am - - - - - NW 11 15 6 8 - - -
03/04:00am - - - - - WNW 11 15 6 8 - - -
03/03:30am - - - - - WNW 19 22 10 12 - - -
03/03:00am - - - - - W 17 20 9 11 - - -
03/02:30am - - - - - WNW 13 17 7 9 - - -
03/02:00am - - - - - WNW 15 20 8 11 - - -
03/01:30am - - - - - NNW 22 26 12 14 - - -
03/01:00am - - - - - N 24 28 13 15 - - -
03/12:30am - - - - - NNW 24 28 13 15 - - -
03/12:00am - - - - - NNW 28 33 15 18 - - -
 
Date/Time
EST
Temp
°C
App
Temp
°C
Dew
Point
°C
Rel
Hum
%
Delta-T
°C
Wind Press
QNH
hPa
Press
MSL
hPa
Rain since
9am
mm
Dir  Spd
km/h
Gust
km/h
Spd
kts
Gust
kts
02/11:30pm - - - - - NNW 24 26 13 14 - - -
02/11:00pm - - - - - NNW 26 32 14 17 - - -
02/10:30pm - - - - - NW 30 33 16 18 - - -
02/10:00pm - - - - - NW 24 32 13 17 - - -
02/09:30pm - - - - - NNW 11 15 6 8 - - -
02/09:00pm - - - - - N 17 20 9 11 - - -
02/08:30pm - - - - - NNE 7 7 4 4 - - -
02/08:00pm - - - - - ENE 2 6 1 3 - - -
02/07:30pm - - - - - ENE 6 7 3 4 - - -
02/07:00pm - - - - - E 9 11 5 6 - - -
02/06:30pm - - - - - ESE 7 9 4 5 - - -
02/06:00pm - - - - - ESE 11 15 6 8 - - -
02/05:30pm - - - - - SSE 15 20 8 11 - - -
02/05:00pm - - - - - SSW 9 11 5 6 - - -
02/04:30pm - - - - - NW 11 15 6 8 - - -
02/04:00pm - - - - - W 11 15 6 8 - - -
02/03:30pm - - - - - NW 17 26 9 14 - - -
02/03:00pm - - - - - N 20 28 11 15 - - -
02/02:30pm - - - - - N 28 32 15 17 - - -
02/02:00pm - - - - - N 26 32 14 17 - - -
02/01:30pm - - - - - N 13 17 7 9 - - -
02/01:00pm - - - - - N 20 24 11 13 - - -
02/12:30pm - - - - - N 26 30 14 16 - - -
02/12:00pm - - - - - N 26 30 14 16 - - -
02/11:30am - - - - - N 30 33 16 18 - - -
02/11:00am - - - - - N 35 41 19 22 - - -
02/10:30am - - - - - N 37 43 20 23 - - -
02/10:00am - - - - - N 35 43 19 23 - - -
02/09:30am - - - - - N 37 46 20 25 - - -
02/09:00am - - - - - N 32 41 17 22 - - -
02/08:30am - - - - - N 33 41 18 22 - - -
02/08:00am - - - - - N 32 39 17 21 - - -
02/07:30am - - - - - N 35 41 19 22 - - -
02/07:00am - - - - - N 37 43 20 23 - - -
02/06:30am - - - - - N 35 41 19 22 - - -
02/06:00am - - - - - N 35 44 19 24 - - -
02/05:30am - - - - - N 37 44 20 24 - - -
02/05:00am - - - - - N 33 41 18 22 - - -
02/04:30am - - - - - N 37 44 20 24 - - -
02/04:00am - - - - - N 37 44 20 24 - - -
02/03:30am - - - - - N 37 46 20 25 - - -
02/03:00am - - - - - N 33 41 18 22 - - -
02/02:30am - - - - - N 32 35 17 19 - - -
02/02:00am - - - - - N 30 33 16 18 - - -
02/01:30am - - - - - N 30 33 16 18 - - -
02/01:00am - - - - - N 32 39 17 21 - - -
02/12:30am - - - - - N 32 39 17 21 - - -
02/12:00am - - - - - N 33 43 18 23 - - -
 
Date/Time
EST
Temp
°C
App
Temp
°C
Dew
Point
°C
Rel
Hum
%
Delta-T
°C
Wind Press
QNH
hPa
Press
MSL
hPa
Rain since
9am
mm
Dir  Spd
km/h
Gust
km/h
Spd
kts
Gust
kts
01/11:30pm - - - - - N 35 43 19 23 - - -
01/11:00pm - - - - - N 26 33 14 18 - - -
01/10:30pm - - - - - N 30 35 16 19 - - -
01/10:00pm - - - - - N 39 48 21 26 - - -
01/09:30pm - - - - - N 43 52 23 28 - - -
01/09:00pm - - - - - N 41 46 22 25 - - -
01/08:30pm - - - - - N 41 50 22 27 - - -
01/08:00pm - - - - - N 35 46 19 25 - - -
01/07:30pm - - - - - N 37 48 20 26 - - -
01/07:00pm - - - - - N 39 46 21 25 - - -
01/06:30pm - - - - - N 33 43 18 23 - - -
01/06:00pm - - - - - N 32 39 17 21 - - -
01/05:30pm - - - - - N 35 43 19 23 - - -
01/05:00pm - - - - - N 35 43 19 23 - - -
01/04:30pm - - - - - N 39 44 21 24 - - -
01/04:00pm - - - - - N 35 43 19 23 - - -
01/03:30pm - - - - - N 37 41 20 22 - - -
01/03:00pm - - - - - N 35 41 19 22 - - -
01/02:30pm - - - - - N 39 43 21 23 - - -
01/02:00pm - - - - - N 33 41 18 22 - - -
01/01:30pm - - - - - N 37 43 20 23 - - -
01/01:00pm - - - - - N 43 46 23 25 - - -
01/12:30pm - - - - - N 41 46 22 25 - - -
01/12:00pm - - - - - N 39 44 21 24 - - -
01/11:30am - - - - - N 39 50 21 27 - - -
01/11:00am - - - - - N 37 48 20 26 - - -
01/10:30am - - - - - N 37 44 20 24 - - -
01/10:00am - - - - - N 41 50 22 27 - - -
01/09:30am - - - - - N 39 46 21 25 - - -
01/09:00am - - - - - N 37 44 20 24 - - -
01/08:30am - - - - - N 37 44 20 24 - - -
01/08:00am - - - - - N 39 46 21 25 - - -
01/07:30am - - - - - N 41 46 22 25 - - -

Other formats

Comma delimited format used in spreadsheet applications
http://www.bom.gov.au/fwo/IDV60801/IDV60801.95872.axf

JavaScript Object Notation format (JSON) in row-major order
http://www.bom.gov.au/fwo/IDV60801/IDV60801.95872.json

Data quality

Most of these data are generated automatically and are frequently updated. Quality checks on data are not normally performed. It is possible for incorrect values to appear. Refer to information at About Latest Weather Observations and please check the disclaimer before using these data.